Time;durP1;ratioP1;P1;durP2;ratioP2;P2;SDS_P1;SDS_P2;PMS_P1;PMS_P2;Temp;Humidity;BMP_temperature;BMP_pressure;BME280_temperature;BME280_humidity;BME280_pressure;Samples;Min_cycle;Max_cycle;Signal;HPM_P1;HPM_P2
2023/01/29 00:01:50;;;;;;;12.83;6.60;;;;;;;-2.21;87.92;100765.31;5074292;23;20310;-70
2023/01/29 00:04:16;;;;;;;12.73;6.13;;;;;;;-2.25;88.50;100770.69;5087162;23;20209;-68
2023/01/29 00:06:43;;;;;;;12.30;6.83;;;;;;;-2.15;88.12;100751.22;5073453;23;20215;-70
2023/01/29 00:09:10;;;;;;;12.20;6.40;;;;;;;-2.17;87.73;100750.41;5072230;23;20275;-71
2023/01/29 00:11:37;;;;;;;11.73;6.20;;;;;;;-2.08;88.28;100746.59;5080896;23;20206;-70
2023/01/29 00:14:04;;;;;;;14.33;6.60;;;;;;;-2.02;87.81;100735.94;5051052;23;20591;-69
2023/01/29 00:16:30;;;;;;;15.80;6.00;;;;;;;-2.06;87.29;100742.19;5071864;23;20300;-69
2023/01/29 00:18:57;;;;;;;13.10;6.23;;;;;;;-1.97;88.13;100739.22;5065507;23;20211;-68
2023/01/29 00:21:23;;;;;;;16.67;6.50;;;;;;;-2.05;88.43;100739.53;5081438;23;21189;-68
2023/01/29 00:23:50;;;;;;;13.60;5.57;;;;;;;-2.13;87.77;100732.00;5075154;23;20211;-70
2023/01/29 00:26:17;;;;;;;12.37;6.10;;;;;;;-2.02;87.19;100730.75;5065787;23;20363;-71
2023/01/29 00:28:43;;;;;;;11.47;5.17;;;;;;;-2.23;87.77;100728.00;5077339;23;20275;-68
2023/01/29 00:31:12;;;;;;;9.70;5.27;;;;;;;-2.12;87.23;100723.25;5072820;23;20265;-70
2023/01/29 00:33:39;;;;;;;12.07;5.03;;;;;;;-2.25;87.38;100721.16;5078463;23;20365;-71
2023/01/29 00:36:09;;;;;;;10.57;4.97;;;;;;;-2.15;88.20;100725.16;5063657;23;20340;-71
2023/01/29 00:38:36;;;;;;;10.50;5.23;;;;;;;-2.02;88.34;100718.53;5069060;23;20203;-69
2023/01/29 00:46:45;;;;;;;9.70;5.13;;;;;;;-2.18;89.77;100710.47;5083155;23;20368;-70
2023/01/29 00:49:12;;;;;;;11.70;4.60;;;;;;;-2.17;89.52;100708.72;5078379;23;20234;-68
2023/01/29 00:51:38;;;;;;;12.47;5.57;;;;;;;-2.27;89.55;100708.19;5092103;23;20617;-70
2023/01/29 00:54:05;;;;;;;12.57;4.87;;;;;;;-2.25;89.76;100700.31;5037220;23;20687;-70
2023/01/29 00:56:34;;;;;;;10.33;4.30;;;;;;;-2.14;89.03;100706.81;5058995;23;20313;-69
2023/01/29 00:59:01;;;;;;;7.97;4.40;;;;;;;-2.10;88.81;100694.53;5057295;23;21230;-69
2023/01/29 01:04:13;;;;;;;8.17;4.20;;;;;;;-2.17;88.78;100693.06;5080651;23;20214;-70
2023/01/29 01:06:41;;;;;;;7.90;4.50;;;;;;;-2.34;88.62;100691.09;5090667;23;21611;-70
2023/01/29 01:11:54;;;;;;;9.47;5.03;;;;;;;-2.23;89.77;100662.84;5094386;23;20429;-71
2023/01/29 01:14:20;;;;;;;11.03;4.73;;;;;;;-2.36;90.12;100669.44;5082000;23;20355;-70
2023/01/29 01:16:48;;;;;;;9.10;4.87;;;;;;;-2.49;89.20;100662.97;5077163;23;21310;-69
2023/01/29 01:19:14;;;;;;;10.73;4.83;;;;;;;-2.29;89.24;100657.88;5065361;23;21892;-69
2023/01/29 01:21:44;;;;;;;9.97;4.93;;;;;;;-2.22;89.38;100642.88;5088072;23;20457;-70
2023/01/29 01:24:14;;;;;;;9.20;4.87;;;;;;;-2.23;90.44;100655.03;5082409;23;20211;-70
2023/01/29 01:26:40;;;;;;;8.87;4.57;;;;;;;-2.21;89.70;100650.59;5066095;23;20211;-64
2023/01/29 01:29:07;;;;;;;8.10;4.60;;;;;;;-2.21;89.40;100650.59;5072345;23;20237;-66
2023/01/29 01:31:34;;;;;;;10.13;4.60;;;;;;;-2.27;89.06;100656.06;5077384;23;20631;-65
2023/01/29 01:34:01;;;;;;;11.30;5.37;;;;;;;-2.28;89.03;100659.56;5059808;23;20257;-67
2023/01/29 01:36:27;;;;;;;9.37;5.10;;;;;;;-2.32;89.08;100655.38;5071335;23;21040;-65
2023/01/29 01:38:53;;;;;;;12.10;5.60;;;;;;;-2.30;88.50;100661.38;5076477;23;20656;-66
2023/01/29 01:41:21;;;;;;;11.50;5.50;;;;;;;-2.34;88.77;100660.66;5076390;23;25301;-65
2023/01/29 01:43:51;;;;;;;9.80;5.07;;;;;;;-2.37;89.38;100650.34;5073795;23;20215;-66
2023/01/29 01:46:18;;;;;;;10.17;5.20;;;;;;;-2.27;89.26;100648.25;5081036;23;20390;-66
2023/01/29 01:48:48;;;;;;;17.53;5.60;;;;;;;-2.26;89.58;100656.91;5055980;23;20640;-66
2023/01/29 01:51:15;;;;;;;12.77;5.90;;;;;;;-2.28;89.22;100664.78;5075458;23;20415;-65
2023/01/29 01:53:48;;;;;;;12.60;6.00;;;;;;;-2.24;89.70;100661.16;5074720;23;20265;-64
2023/01/29 01:56:20;;;;;;;14.63;6.73;;;;;;;-2.24;89.98;100655.94;5075893;23;20231;-65
2023/01/29 01:58:51;;;;;;;13.40;6.40;;;;;;;-2.35;90.16;100656.34;5057496;23;20203;-65
2023/01/29 02:01:20;;;;;;;13.10;6.20;;;;;;;-2.32;90.89;100657.97;5055041;23;20207;-65
2023/01/29 02:09:37;;;;;;;15.73;6.90;;;;;;;-2.35;89.56;100671.13;5069247;23;20199;-65
2023/01/29 02:12:07;;;;;;;15.73;7.00;;;;;;;-2.41;90.25;100659.19;5076212;23;20203;-64
2023/01/29 02:14:38;;;;;;;16.97;7.97;;;;;;;-2.43;90.37;100660.16;5055511;23;20214;-65
2023/01/29 02:17:06;;;;;;;19.77;7.53;;;;;;;-2.33;90.61;100666.72;5057697;23;26271;-62
2023/01/29 02:19:40;;;;;;;18.40;7.67;;;;;;;-2.27;91.18;100657.81;5059694;23;20203;-65
2023/01/29 02:22:39;;;;;;;16.43;7.10;;;;;;;-2.27;90.73;100657.81;5073906;23;20255;-66
2023/01/29 02:25:23;;;;;;;17.87;7.80;;;;;;;-2.24;91.24;100650.75;5054625;23;20253;-67
2023/01/29 02:28:10;;;;;;;17.87;7.80;;;;;;;-2.30;91.36;100640.53;5074072;23;20258;-66
2023/01/29 02:30:42;;;;;;;17.33;7.43;;;;;;;-2.29;91.77;100638.81;5075518;23;20258;-68
2023/01/29 02:33:37;;;;;;;14.30;7.70;;;;;;;-2.26;91.92;100628.25;5055718;23;20211;-66
2023/01/29 02:36:12;;;;;;;14.33;6.83;;;;;;;-2.26;91.88;100636.91;5081362;23;20206;-64
2023/01/29 02:38:54;;;;;;;16.77;7.87;;;;;;;-2.24;91.74;100640.31;5075048;23;20203;-65
2023/01/29 02:41:27;;;;;;;21.33;8.50;;;;;;;-2.28;91.86;100636.13;5069698;23;20208;-65
2023/01/29 02:44:05;;;;;;;14.40;6.80;;;;;;;-2.22;92.95;100629.84;5060047;23;20293;-65
2023/01/29 02:46:43;;;;;;;16.90;8.03;;;;;;;-2.24;92.82;100632.50;5073282;23;22280;-65
2023/01/29 02:49:31;;;;;;;16.20;8.30;;;;;;;-2.25;93.34;100624.72;5094957;23;21495;-65
2023/01/29 02:52:06;;;;;;;16.67;7.27;;;;;;;-2.27;93.69;100623.94;5062502;23;20245;-64
2023/01/29 02:54:44;;;;;;;18.13;7.63;;;;;;;-2.34;94.02;100616.38;5060128;23;20208;-65
2023/01/29 02:57:19;;;;;;;18.57;8.10;;;;;;;-2.34;94.44;100626.78;5074486;23;20320;-66
2023/01/29 02:59:54;;;;;;;16.37;8.40;;;;;;;-2.34;94.67;100629.38;5072844;23;20198;-67
2023/01/29 03:02:43;;;;;;;16.83;8.17;;;;;;;-2.34;94.38;100623.34;5071164;23;20287;-66
2023/01/29 03:05:33;;;;;;;15.73;8.20;;;;;;;-2.25;94.69;100611.69;5064771;23;20199;-65
2023/01/29 03:08:05;;;;;;;19.57;8.80;;;;;;;-2.32;94.56;100611.06;5080213;23;21554;-65
2023/01/29 03:11:02;;;;;;;17.10;7.90;;;;;;;-2.24;94.96;100603.81;5063077;23;21349;-64
2023/01/29 03:13:35;;;;;;;16.90;7.80;;;;;;;-2.27;94.11;100609.16;5056143;23;20215;-63
2023/01/29 03:16:25;;;;;;;14.13;7.40;;;;;;;-2.23;93.96;100609.88;5069255;23;20251;-65
2023/01/29 03:19:02;;;;;;;19.47;7.93;;;;;;;-2.21;93.78;100610.66;5074319;23;20319;-65
2023/01/29 03:33:44;;;;;;;14.87;7.73;;;;;;;-2.22;94.26;100606.38;5093162;23;20203;-64
2023/01/29 03:36:16;;;;;;;22.40;7.90;;;;;;;-2.22;94.17;100604.63;5082370;23;20204;-66
2023/01/29 03:38:43;;;;;;;15.67;6.97;;;;;;;-2.34;94.23;100602.50;5047663;23;20228;-65
2023/01/29 03:41:32;;;;;;;20.77;8.60;;;;;;;-2.30;94.93;100604.03;5080527;23;20373;-66
2023/01/29 03:44:19;;;;;;;14.73;7.33;;;;;;;-2.17;94.40;100604.44;5073871;23;22297;-63
2023/01/29 03:46:58;;;;;;;16.07;8.10;;;;;;;-2.14;94.44;100599.09;5055045;23;20377;-67
2023/01/29 03:49:45;;;;;;;17.57;7.90;;;;;;;-2.18;94.13;100603.59;5063018;23;20409;-66
2023/01/29 03:52:16;;;;;;;15.73;7.10;;;;;;;-2.12;94.18;100602.50;5075573;23;20214;-65
2023/01/29 03:55:09;;;;;;;15.33;7.47;;;;;;;-2.17;94.55;100600.06;5066576;23;21680;-65
2023/01/29 03:57:55;;;;;;;18.37;7.60;;;;;;;-2.20;94.83;100594.09;5056674;23;20565;-67
2023/01/29 04:00:26;;;;;;;15.00;7.70;;;;;;;-2.29;94.80;100595.34;5076407;23;20217;-65
2023/01/29 04:03:17;;;;;;;13.93;6.93;;;;;;;-2.27;95.25;100588.31;5053001;23;21740;-66
2023/01/29 04:06:04;;;;;;;15.73;6.70;;;;;;;-2.20;94.29;100591.50;5074840;23;24415;-65
2023/01/29 04:08:33;;;;;;;15.93;6.83;;;;;;;-2.27;95.01;100588.31;5066539;23;20244;-67
2023/01/29 04:11:03;;;;;;;15.77;7.57;;;;;;;-2.14;94.45;100586.91;5058211;23;20647;-65
2023/01/29 04:13:32;;;;;;;20.10;6.83;;;;;;;-2.14;94.51;100581.69;5091390;23;20386;-65
2023/01/29 04:16:00;;;;;;;14.47;7.27;;;;;;;-2.17;94.46;100574.00;5073454;23;20608;-66
2023/01/29 04:18:26;;;;;;;17.27;7.80;;;;;;;-2.12;94.63;100581.63;5068663;23;20258;-65
2023/01/29 04:20:53;;;;;;;14.17;7.13;;;;;;;-2.13;94.61;100587.78;5083001;23;20612;-65
2023/01/29 04:23:22;;;;;;;15.10;6.57;;;;;;;-2.13;94.62;100580.78;5059168;23;22627;-66
2023/01/29 04:26:06;;;;;;;13.47;6.37;;;;;;;-2.12;94.13;100566.84;5066789;23;20207;-65
2023/01/29 04:29:07;;;;;;;17.63;7.40;;;;;;;-2.15;94.63;100561.75;5073700;23;20275;-65
2023/01/29 04:32:01;;;;;;;15.43;6.67;;;;;;;-2.11;94.63;100562.47;5096149;23;20335;-64
2023/01/29 04:34:28;;;;;;;14.73;7.17;;;;;;;-2.11;94.58;100570.28;5086442;23;20236;-66
2023/01/29 04:36:59;;;;;;;16.63;6.53;;;;;;;-2.14;94.53;100560.00;5055832;23;21568;-65
2023/01/29 04:39:39;;;;;;;11.37;6.47;;;;;;;-2.21;94.32;100561.13;5060888;23;22294;-66
2023/01/29 04:42:33;;;;;;;14.33;6.10;;;;;;;-2.26;95.68;100558.72;5075548;23;20567;-65
2023/01/29 04:45:06;;;;;;;12.53;6.50;;;;;;;-2.08;95.28;100558.88;5090535;23;20633;-64
2023/01/29 04:47:41;;;;;;;16.43;6.90;;;;;;;-2.04;94.73;100565.69;5061989;23;20211;-64
2023/01/29 04:50:21;;;;;;;14.43;6.60;;;;;;;-2.08;94.39;100561.50;5056770;23;20203;-66
2023/01/29 04:52:56;;;;;;;13.10;6.47;;;;;;;-2.06;94.30;100554.47;5052327;23;20208;-65
2023/01/29 04:55:38;;;;;;;14.63;7.13;;;;;;;-2.16;94.36;100544.41;5074853;23;20319;-64
2023/01/29 04:58:10;;;;;;;13.47;6.63;;;;;;;-2.09;94.68;100549.38;5081114;23;20564;-65
2023/01/29 05:00:42;;;;;;;16.53;7.53;;;;;;;-2.18;94.32;100545.38;5075434;23;20649;-66
2023/01/29 05:03:11;;;;;;;17.00;7.53;;;;;;;-2.15;95.03;100546.13;5073892;23;20207;-65
2023/01/29 05:05:42;;;;;;;12.73;6.60;;;;;;;-2.14;94.87;100544.34;5069351;23;20206;-66
2023/01/29 05:08:12;;;;;;;14.27;7.53;;;;;;;-2.15;95.05;100546.13;5073180;23;20215;-63
2023/01/29 05:10:39;;;;;;;16.23;7.90;;;;;;;-2.22;95.47;100544.66;5075054;23;20362;-65
2023/01/29 05:13:08;;;;;;;15.50;7.73;;;;;;;-2.14;95.78;100550.41;5071593;23;26323;-65
2023/01/29 05:15:38;;;;;;;17.70;7.97;;;;;;;-2.07;95.46;100545.78;5067386;23;22940;-66
2023/01/29 05:18:07;;;;;;;18.20;7.23;;;;;;;-2.04;95.42;100548.28;5066235;23;20207;-68
2023/01/29 05:20:37;;;;;;;18.20;8.00;;;;;;;-2.05;95.03;100549.19;5053843;23;20210;-66
2023/01/29 05:23:03;;;;;;;14.53;7.27;;;;;;;-2.01;95.44;100539.50;5043645;23;20879;-65
2023/01/29 05:25:31;;;;;;;17.90;7.47;;;;;;;-2.10;95.03;100543.31;5081448;23;21280;-65
2023/01/29 05:28:05;;;;;;;16.33;8.67;;;;;;;-2.07;94.97;100540.59;5102031;23;20233;-66
2023/01/29 05:30:33;;;;;;;18.63;7.67;;;;;;;-2.12;94.97;100540.75;5053820;23;20221;-66
2023/01/29 05:33:00;;;;;;;18.57;8.33;;;;;;;-2.27;94.78;100535.31;5071986;23;22945;-66
2023/01/29 05:35:27;;;;;;;15.67;7.87;;;;;;;-2.08;95.46;100530.19;5086580;23;25385;-66
2023/01/29 05:37:57;;;;;;;18.27;8.03;;;;;;;-2.02;95.25;100530.81;5079671;23;20199;-66
2023/01/29 05:40:24;;;;;;;17.87;8.13;;;;;;;-2.06;95.04;100528.38;5039479;23;20706;-66
2023/01/29 05:42:50;;;;;;;15.87;7.60;;;;;;;-2.05;94.91;100530.09;5084784;23;20200;-69
2023/01/29 05:45:17;;;;;;;17.17;7.87;;;;;;;-2.12;95.73;100517.31;5075450;23;20836;-65
2023/01/29 05:47:45;;;;;;;20.50;9.30;;;;;;;-2.15;96.27;100512.22;5072426;23;20596;-66
2023/01/29 05:50:12;;;;;;;22.77;9.47;;;;;;;-2.03;95.81;100510.03;5071169;23;23632;-65
2023/01/29 05:52:40;;;;;;;20.87;9.03;;;;;;;-2.01;96.02;100516.03;5073248;23;20494;-67
2023/01/29 05:55:08;;;;;;;18.67;10.07;;;;;;;-2.03;95.45;100513.47;5054986;23;20229;-65
2023/01/29 05:57:34;;;;;;;21.20;9.47;;;;;;;-2.06;95.63;100512.75;5070091;23;20204;-66
2023/01/29 06:00:01;;;;;;;19.03;9.33;;;;;;;-2.03;95.48;100508.25;5075059;23;21323;-66
2023/01/29 06:02:30;;;;;;;18.00;8.93;;;;;;;-2.10;95.84;100505.97;5068273;23;20210;-68
2023/01/29 06:04:57;;;;;;;20.70;8.23;;;;;;;-2.09;95.53;100515.47;5078707;23;26094;-66
2023/01/29 06:07:23;;;;;;;19.37;8.67;;;;;;;-2.06;96.27;100523.16;5078398;23;20594;-67
2023/01/29 06:09:50;;;;;;;17.07;8.07;;;;;;;-2.01;95.74;100527.31;5071413;23;20385;-67
2023/01/29 06:12:16;;;;;;;19.83;8.87;;;;;;;-2.01;95.17;100524.69;5074725;23;20203;-67
2023/01/29 06:14:43;;;;;;;17.77;8.77;;;;;;;-2.07;95.35;100530.16;5107004;23;21811;-64
2023/01/29 06:17:09;;;;;;;21.53;9.13;;;;;;;-2.01;95.60;100526.47;5078917;23;20683;-66
2023/01/29 06:19:36;;;;;;;20.73;9.53;;;;;;;-2.02;95.69;100524.75;5076380;23;20233;-70
2023/01/29 06:22:02;;;;;;;19.77;9.37;;;;;;;-2.03;95.12;100523.06;5085814;23;20203;-65
2023/01/29 06:24:29;;;;;;;20.50;9.03;;;;;;;-1.99;94.93;100529.81;5086023;23;20895;-65
2023/01/29 06:26:55;;;;;;;21.10;9.67;;;;;;;-2.02;94.89;100528.19;5078140;23;21288;-67
2023/01/29 06:29:21;;;;;;;18.77;9.13;;;;;;;-2.02;95.18;100522.16;5066093;23;20245;-66
2023/01/29 06:31:48;;;;;;;20.60;9.33;;;;;;;-1.96;95.42;100524.50;5081891;23;20207;-66
2023/01/29 06:34:15;;;;;;;18.30;9.10;;;;;;;-1.93;94.83;100524.38;5085637;23;20218;-65
2023/01/29 06:36:41;;;;;;;21.93;10.17;;;;;;;-1.94;95.01;100514.88;5076874;23;20204;-67
2023/01/29 06:39:08;;;;;;;24.50;10.27;;;;;;;-1.95;94.63;100513.16;5072776;23;23487;-66
2023/01/29 06:41:35;;;;;;;20.67;9.80;;;;;;;-1.98;94.98;100513.28;5068955;23;20207;-67
2023/01/29 06:44:01;;;;;;;23.93;10.67;;;;;;;-1.92;95.14;100513.03;5074097;23;20199;-67
2023/01/29 06:46:28;;;;;;;20.67;9.90;;;;;;;-1.94;95.04;100517.47;5066803;23;20207;-67
2023/01/29 06:48:58;;;;;;;22.60;10.53;;;;;;;-1.92;94.38;100518.22;5078536;23;20284;-66
2023/01/29 06:51:24;;;;;;;23.17;9.63;;;;;;;-1.91;93.90;100518.19;5068733;23;20207;-66
2023/01/29 06:53:53;;;;;;;23.37;9.80;;;;;;;-1.87;93.67;100513.69;5064462;23;20214;-65
2023/01/29 06:56:19;;;;;;;21.50;9.77;;;;;;;-1.92;93.85;100523.44;5082138;23;21755;-66
2023/01/29 06:58:46;;;;;;;23.37;11.27;;;;;;;-1.88;93.71;100530.25;5067470;23;21172;-66
2023/01/29 07:01:13;;;;;;;21.23;9.90;;;;;;;-1.88;93.88;100532.84;5073478;23;20851;-69
2023/01/29 07:03:59;;;;;;;19.73;9.37;;;;;;;-1.86;94.25;100520.59;5089324;23;21500;-65
2023/01/29 07:06:29;;;;;;;24.43;10.17;;;;;;;-1.93;94.32;100516.56;5071080;23;20673;-68
2023/01/29 07:08:55;;;;;;;27.47;9.77;;;;;;;-1.89;94.82;100510.31;5078662;23;20204;-64
2023/01/29 07:11:22;;;;;;;24.00;9.57;;;;;;;-1.79;94.00;100508.16;5125536;23;20305;-65
2023/01/29 07:13:49;;;;;;;24.73;9.80;;;;;;;-1.78;93.36;100488.97;5119807;23;20672;-63
2023/01/29 07:16:15;;;;;;;22.67;9.97;;;;;;;-1.81;93.76;100489.94;5122805;23;20375;-68
2023/01/29 07:18:42;;;;;;;22.07;8.73;;;;;;;-1.77;93.83;100499.34;5120540;23;20199;-65
2023/01/29 07:21:08;;;;;;;19.37;9.23;;;;;;;-1.81;93.97;100508.22;5092544;23;20308;-62
2023/01/29 07:23:35;;;;;;;23.80;9.60;;;;;;;-1.84;93.77;100505.75;5098525;23;20203;-65
2023/01/29 07:26:03;;;;;;;19.90;9.57;;;;;;;-1.76;94.02;100495.81;5064955;23;20352;-66
2023/01/29 07:28:30;;;;;;;22.53;9.80;;;;;;;-1.87;93.42;100508.47;5071630;23;21198;-64
2023/01/29 07:30:57;;;;;;;19.47;9.53;;;;;;;-1.85;93.60;100506.66;5069352;23;20204;-66
2023/01/29 07:33:24;;;;;;;20.10;8.83;;;;;;;-1.75;93.93;100520.16;5080136;23;25222;-65
2023/01/29 07:35:51;;;;;;;19.60;9.07;;;;;;;-1.70;93.51;100532.09;5093408;23;20417;-62
2023/01/29 07:38:18;;;;;;;19.60;9.20;;;;;;;-1.76;92.67;100534.94;5073216;23;26276;-64
2023/01/29 07:40:45;;;;;;;19.97;9.47;;;;;;;-1.76;92.81;100521.91;5088518;23;21592;-66
2023/01/29 07:43:12;;;;;;;18.27;9.03;;;;;;;-1.72;93.32;100528.69;5075587;23;22295;-62
2023/01/29 07:45:39;;;;;;;20.43;8.70;;;;;;;-1.63;92.60;100534.44;5072817;23;20262;-65
2023/01/29 07:48:08;;;;;;;17.40;9.03;;;;;;;-1.67;92.68;100525.03;5072462;23;20255;-66
2023/01/29 07:50:34;;;;;;;22.17;9.17;;;;;;;-1.64;92.32;100523.16;5114532;23;20341;-66
2023/01/29 07:53:01;;;;;;;18.17;8.57;;;;;;;-1.57;92.57;100527.22;5073050;23;20292;-67
2023/01/29 07:55:28;;;;;;;21.43;9.40;;;;;;;-1.55;92.51;100514.06;5078457;23;20700;-67
2023/01/29 07:58:04;;;;;;;19.53;8.90;;;;;;;-1.55;92.03;100504.47;5086408;23;20333;-67
2023/01/29 08:00:31;;;;;;;23.37;9.43;;;;;;;-1.64;92.11;100501.44;5117027;23;20203;-68
2023/01/29 08:03:06;;;;;;;16.60;8.30;;;;;;;-1.59;92.12;100507.28;5054590;23;20377;-69
2023/01/29 08:05:32;;;;;;;20.23;8.73;;;;;;;-1.62;91.52;100517.88;5066127;23;20624;-68
2023/01/29 08:07:59;;;;;;;18.63;8.80;;;;;;;-1.50;91.12;100512.97;5082908;23;22206;-68
2023/01/29 08:10:34;;;;;;;19.17;8.80;;;;;;;-1.57;91.00;100508.06;5074608;23;21496;-69
2023/01/29 08:13:02;;;;;;;22.20;8.83;;;;;;;-1.57;91.42;100506.34;5058959;23;21189;-68
2023/01/29 08:15:28;;;;;;;19.87;8.80;;;;;;;-1.60;91.92;100490.78;5074933;23;20649;-68
2023/01/29 08:17:55;;;;;;;21.97;9.20;;;;;;;-1.64;91.50;100484.03;5076222;23;20203;-67
2023/01/29 08:20:42;;;;;;;20.17;8.17;;;;;;;-1.57;91.38;100485.47;5085635;23;20591;-68
2023/01/29 08:23:13;;;;;;;16.37;7.97;;;;;;;-1.63;90.72;100490.94;5078554;23;20300;-67
2023/01/29 08:25:40;;;;;;;19.40;8.73;;;;;;;-1.54;90.89;100485.31;5048411;23;20217;-65
2023/01/29 08:28:06;;;;;;;20.17;9.00;;;;;;;-1.57;91.19;100490.69;5078253;23;20199;-66
2023/01/29 08:30:33;;;;;;;24.90;8.80;;;;;;;-1.48;91.67;100494.63;5080541;23;20276;-69
2023/01/29 08:33:00;;;;;;;22.80;8.70;;;;;;;-1.45;91.21;100494.53;5058363;23;20759;-66
2023/01/29 08:35:27;;;;;;;18.67;7.87;;;;;;;-1.45;90.90;100494.53;5057754;23;20210;-68
2023/01/29 08:37:58;;;;;;;20.93;9.07;;;;;;;-1.35;90.50;100487.13;5086100;23;20199;-65
2023/01/29 08:40:30;;;;;;;16.23;7.80;;;;;;;-1.24;90.51;100504.91;5105612;23;20645;-62
2023/01/29 08:42:58;;;;;;;22.00;8.63;;;;;;;-1.28;90.23;100492.00;5070436;23;20252;-68
2023/01/29 08:45:28;;;;;;;20.20;8.97;;;;;;;-1.30;90.83;100488.59;5086095;23;20208;-68
2023/01/29 08:47:55;;;;;;;22.17;8.57;;;;;;;-1.29;90.08;100487.72;5070168;23;21162;-66
2023/01/29 08:50:22;;;;;;;18.57;8.93;;;;;;;-1.37;90.50;100489.78;5090511;23;20289;-67
2023/01/29 08:52:48;;;;;;;25.40;9.97;;;;;;;-1.40;91.00;100483.88;5049601;23;26412;-66
2023/01/29 08:55:15;;;;;;;23.57;9.93;;;;;;;-1.37;91.50;100481.13;5092021;23;20255;-68
2023/01/29 08:57:42;;;;;;;16.53;8.23;;;;;;;-1.35;91.42;100479.28;5077715;23;20215;-70
2023/01/29 09:00:09;;;;;;;21.90;9.73;;;;;;;-1.34;91.51;100475.75;5067871;23;20258;-66
2023/01/29 09:02:36;;;;;;;22.40;9.37;;;;;;;-1.41;91.53;100475.19;5084254;23;23021;-66
2023/01/29 09:05:03;;;;;;;18.37;8.57;;;;;;;-1.38;91.76;100480.28;5077975;23;20425;-67
2023/01/29 09:07:30;;;;;;;18.33;8.07;;;;;;;-1.38;92.12;100474.19;5075869;23;20209;-68
2023/01/29 09:09:56;;;;;;;25.70;8.40;;;;;;;-1.34;91.95;100475.75;5098266;23;21408;-69
2023/01/29 09:12:23;;;;;;;20.50;7.63;;;;;;;-1.37;92.21;100468.06;5075459;23;20421;-67
2023/01/29 09:14:49;;;;;;;15.43;7.53;;;;;;;-1.42;92.98;100449.16;5074128;23;20259;-66
2023/01/29 09:17:16;;;;;;;17.57;8.00;;;;;;;-1.45;93.55;100450.16;5081470;23;20258;-67
2023/01/29 09:19:42;;;;;;;23.33;9.70;;;;;;;-1.44;94.86;100453.59;5075073;23;22214;-68
2023/01/29 09:22:09;;;;;;;20.83;8.77;;;;;;;-1.50;95.88;100444.25;5073585;23;20325;-68
2023/01/29 09:24:37;;;;;;;17.90;8.57;;;;;;;-1.45;95.77;100460.59;5079743;23;20203;-69
2023/01/29 09:27:04;;;;;;;17.03;8.53;;;;;;;-1.39;95.23;100452.47;5086834;23;21233;-69
2023/01/29 09:29:31;;;;;;;16.03;8.33;;;;;;;-1.30;95.31;100456.44;5071253;23;20497;-67
2023/01/29 09:32:02;;;;;;;16.10;7.70;;;;;;;-1.33;95.49;100443.53;5073880;23;20204;-68
2023/01/29 09:34:28;;;;;;;18.70;7.87;;;;;;;-1.38;95.15;100443.75;5083446;23;20199;-66
2023/01/29 09:36:55;;;;;;;23.40;9.67;;;;;;;-1.42;95.81;100457.84;5082087;23;20265;-68
2023/01/29 09:39:21;;;;;;;18.40;8.73;;;;;;;-1.47;96.81;100451.97;5075734;23;20234;-67
2023/01/29 09:42:11;;;;;;;22.63;9.70;;;;;;;-1.50;98.23;100444.25;5083495;23;21055;-71
2023/01/29 09:45:14;;;;;;;26.33;9.10;;;;;;;-1.51;99.65;100426.94;5079601;23;21083;-68
2023/01/29 09:47:41;;;;;;;19.83;8.70;;;;;;;-1.49;99.85;100428.56;5062647;23;23423;-69
2023/01/29 09:50:14;;;;;;;18.07;8.43;;;;;;;-1.39;100.00;100431.59;5083669;23;20203;-67
2023/01/29 09:53:06;;;;;;;20.87;9.23;;;;;;;-1.28;100.00;100438.94;5080383;23;20276;-68
2023/01/29 09:55:37;;;;;;;21.00;8.97;;;;;;;-1.13;100.00;100429.56;5098211;23;21764;-68
2023/01/29 09:58:15;;;;;;;18.83;9.77;;;;;;;-1.03;100.00;100441.28;5097065;23;21271;-67
2023/01/29 10:01:05;;;;;;;23.40;9.10;;;;;;;-0.98;100.00;100433.25;5074476;23;22391;-67
2023/01/29 10:04:05;;;;;;;21.83;9.87;;;;;;;-1.06;100.00;100423.97;5072354;23;20604;-67
2023/01/29 10:06:42;;;;;;;20.63;9.73;;;;;;;-1.33;100.00;100420.88;5068716;23;20731;-67
2023/01/29 10:09:36;;;;;;;21.03;9.03;;;;;;;-1.31;100.00;100423.44;5048928;23;20566;-69
2023/01/29 10:12:10;;;;;;;25.13;9.77;;;;;;;-1.39;100.00;100418.53;5086559;23;20258;-69
2023/01/29 10:15:16;;;;;;;22.07;10.17;;;;;;;-1.44;100.00;100415.28;5094643;23;21151;-70
2023/01/29 10:18:01;;;;;;;27.03;10.13;;;;;;;-1.45;100.00;100415.34;5062621;23;22148;-68
2023/01/29 10:20:52;;;;;;;28.60;11.03;;;;;;;-1.40;100.00;100409.03;5088598;23;21511;-67
2023/01/29 10:23:26;;;;;;;22.60;9.37;;;;;;;-1.58;100.00;100399.41;5095314;23;20318;-67
2023/01/29 10:25:54;;;;;;;26.77;11.47;;;;;;;-1.59;100.00;100402.94;5064713;23;20271;-68
2023/01/29 10:28:38;;;;;;;21.50;9.57;;;;;;;-1.47;100.00;100402.41;5048393;23;20265;-69
2023/01/29 10:31:23;;;;;;;25.47;11.37;;;;;;;-1.44;100.00;100399.63;5072055;23;20470;-67
2023/01/29 10:33:53;;;;;;;21.23;9.60;;;;;;;-1.40;100.00;100406.41;5041735;23;20268;-67
2023/01/29 10:36:33;;;;;;;25.37;11.87;;;;;;;-1.37;100.00;100408.88;5073551;23;20204;-69
2023/01/29 10:38:59;;;;;;;22.90;9.67;;;;;;;-1.44;100.00;100394.41;5061135;23;20443;-69
2023/01/29 10:41:48;;;;;;;24.23;10.93;;;;;;;-1.46;100.00;100391.03;5047135;23;20293;-68
2023/01/29 10:44:36;;;;;;;21.50;11.23;;;;;;;-1.56;100.00;100402.81;5080662;23;20215;-68
2023/01/29 10:47:40;;;;;;;27.37;11.67;;;;;;;-1.43;100.00;100393.50;5059891;23;20262;-71
2023/01/29 10:50:46;;;;;;;27.43;11.60;;;;;;;-1.51;100.00;100395.63;5056673;23;20204;-71
2023/01/29 10:53:29;;;;;;;22.67;10.37;;;;;;;-1.40;100.00;100398.59;5063178;23;20215;-68
2023/01/29 10:56:20;;;;;;;25.13;11.57;;;;;;;-1.47;100.00;100381.53;5051501;23;20269;-69
2023/01/29 10:58:58;;;;;;;27.33;11.23;;;;;;;-1.44;100.00;100380.53;5062861;23;21187;-66
2023/01/29 11:01:25;;;;;;;26.57;11.67;;;;;;;-1.44;100.00;100376.16;5049072;23;21612;-68
2023/01/29 11:03:58;;;;;;;23.57;11.57;;;;;;;-1.34;100.00;100382.63;5047370;23;20761;-71
2023/01/29 11:06:33;;;;;;;27.77;11.60;;;;;;;-1.32;100.00;100367.75;5021756;23;20275;-69
2023/01/29 11:09:23;;;;;;;26.43;11.47;;;;;;;-1.30;100.00;100367.69;5050435;23;20285;-68
2023/01/29 11:11:53;;;;;;;29.40;10.97;;;;;;;-1.39;100.00;100357.66;5037543;23;22141;-68
2023/01/29 11:14:30;;;;;;;25.77;10.67;;;;;;;-1.26;100.00;100369.25;5037782;23;25828;-68
2023/01/29 11:16:57;;;;;;;26.53;10.90;;;;;;;-1.23;100.00;100363.03;5032579;23;20696;-66
2023/01/29 11:19:38;;;;;;;21.83;10.63;;;;;;;-1.12;100.00;100356.38;5043974;23;20697;-69
2023/01/29 11:22:12;;;;;;;23.43;10.60;;;;;;;-1.04;100.00;100352.56;5043319;23;20351;-67
2023/01/29 11:24:38;;;;;;;28.83;12.70;;;;;;;-1.08;100.00;100352.72;5023207;23;20413;-69
2023/01/29 11:27:24;;;;;;;30.27;12.17;;;;;;;-1.11;100.00;100342.41;5026597;23;20860;-66
2023/01/29 11:29:54;;;;;;;31.67;12.40;;;;;;;-1.11;100.00;100337.19;5041461;23;20298;-64
2023/01/29 11:32:21;;;;;;;24.83;11.10;;;;;;;-1.13;100.00;100320.72;5032525;23;20208;-68
2023/01/29 11:35:00;;;;;;;24.90;11.93;;;;;;;-1.10;100.00;100317.13;5030258;23;20207;-68
2023/01/29 11:37:33;;;;;;;26.13;11.73;;;;;;;-1.13;100.00;100312.91;5028094;23;20208;-67
2023/01/29 11:40:00;;;;;;;28.53;12.10;;;;;;;-1.25;100.00;100315.25;5070257;23;20274;-66
2023/01/29 11:42:30;;;;;;;31.07;12.40;;;;;;;-1.23;100.00;100308.22;5054460;23;20415;-72
2023/01/29 11:44:56;;;;;;;28.40;12.43;;;;;;;-1.23;100.00;100300.38;5013273;23;20209;-67
2023/01/29 11:47:27;;;;;;;23.20;11.07;;;;;;;-1.25;100.00;100302.22;5060901;23;20207;-68
2023/01/29 11:49:56;;;;;;;29.07;12.93;;;;;;;-1.30;100.00;100292.00;5045130;23;20331;-67
2023/01/29 11:52:25;;;;;;;26.33;12.23;;;;;;;-1.29;100.00;100284.09;5047300;23;20303;-69
2023/01/29 11:54:56;;;;;;;29.70;12.47;;;;;;;-1.36;100.00;100287.91;5032287;23;23276;-72
2023/01/29 11:57:28;;;;;;;36.20;12.93;;;;;;;-1.38;100.00;100292.38;5051569;23;20231;-69
2023/01/29 11:59:58;;;;;;;26.83;12.23;;;;;;;-1.35;100.00;100286.97;5035428;23;23637;-69
2023/01/29 12:02:30;;;;;;;32.70;12.30;;;;;;;-1.17;100.00;100273.97;5026285;23;20657;-67
2023/01/29 12:05:00;;;;;;;26.40;13.07;;;;;;;-1.20;100.00;100268.88;5078743;23;20213;-68
2023/01/29 12:07:27;;;;;;;28.57;13.10;;;;;;;-1.21;100.00;100272.44;5060147;23;21037;-69